createdAt,value
2022-10-18T00:00:07.532Z,8.00
2022-10-18T00:03:49.533Z,8.00
2022-10-18T00:07:31.925Z,7.90
2022-10-18T00:11:14.163Z,7.90
2022-10-18T00:14:56.218Z,7.80
2022-10-18T00:18:38.423Z,7.80
2022-10-18T00:22:20.530Z,7.70
2022-10-18T00:26:13.595Z,7.70
2022-10-18T00:29:55.738Z,7.60
2022-10-18T00:33:37.806Z,7.50
2022-10-18T00:37:20.522Z,7.40
2022-10-18T00:41:03.341Z,7.30
2022-10-18T00:44:45.401Z,7.30
2022-10-18T00:48:27.595Z,7.30
2022-10-18T00:52:26.548Z,7.30
2022-10-18T00:56:08.649Z,7.30
2022-10-18T00:59:50.993Z,7.20
2022-10-18T01:03:33.245Z,7.20
2022-10-18T01:07:43.854Z,7.30
2022-10-18T01:11:34.213Z,7.30
2022-10-18T01:15:29.518Z,7.30
2022-10-18T01:19:57.967Z,7.30
2022-10-18T01:24:04.295Z,7.30
2022-10-18T01:27:46.190Z,7.20
2022-10-18T01:31:36.294Z,7.20
2022-10-18T01:35:36.621Z,7.20
2022-10-18T01:39:33.869Z,7.30
2022-10-18T01:43:17.938Z,7.40
2022-10-18T01:47:00.704Z,7.60
2022-10-18T01:50:42.843Z,7.60
2022-10-18T01:54:38.634Z,7.60
2022-10-18T01:58:44.732Z,7.70
2022-10-18T02:02:57.026Z,7.70
2022-10-18T02:06:43.628Z,7.70
2022-10-18T02:10:45.964Z,7.70
2022-10-18T02:14:29.413Z,7.70
2022-10-18T02:18:25.852Z,7.70
2022-10-18T02:22:10.914Z,7.70
2022-10-18T02:25:53.872Z,7.70
2022-10-18T02:29:36.757Z,7.70
2022-10-18T02:33:34.422Z,7.80
2022-10-18T02:37:18.041Z,7.70
2022-10-18T02:41:00.374Z,7.80
2022-10-18T02:44:42.652Z,7.80
2022-10-18T02:48:25.002Z,7.80
2022-10-18T02:52:07.176Z,7.80
2022-10-18T02:55:49.339Z,7.70
2022-10-18T02:59:31.341Z,7.80
2022-10-18T03:03:13.363Z,7.70
2022-10-18T03:06:55.607Z,7.70
2022-10-18T03:10:37.672Z,7.70
2022-10-18T03:14:19.746Z,7.70
2022-10-18T03:18:01.948Z,7.70
2022-10-18T03:21:44.060Z,7.70
2022-10-18T03:25:26.149Z,7.70
2022-10-18T03:29:09.796Z,7.70
2022-10-18T03:32:52.357Z,7.70
2022-10-18T03:36:34.699Z,7.70
2022-10-18T04:31:32.057Z,8.00
2022-10-18T04:35:14.107Z,7.90
2022-10-18T04:38:56.202Z,7.90
2022-10-18T04:42:38.269Z,7.90
2022-10-18T04:46:20.475Z,7.90
2022-10-18T04:50:02.558Z,7.90
2022-10-18T04:53:44.691Z,7.90
2022-10-18T04:57:26.781Z,7.90
2022-10-18T05:01:08.840Z,8.00
2022-10-18T05:04:53.907Z,8.00
2022-10-18T05:08:36.838Z,8.10
2022-10-18T05:12:18.776Z,8.20
2022-10-18T05:16:01.108Z,8.20
2022-10-18T05:19:43.186Z,8.20
2022-10-18T05:23:25.876Z,8.20
2022-10-18T05:27:07.981Z,8.10
2022-10-18T05:30:49.984Z,8.10
2022-10-18T05:34:32.450Z,8.00
2022-10-18T05:38:14.708Z,8.00
2022-10-18T05:41:56.954Z,7.90
2022-10-18T05:45:39.049Z,7.90
2022-10-18T05:49:21.314Z,7.80
2022-10-18T05:53:12.013Z,7.80
2022-10-18T05:56:54.771Z,7.80
2022-10-18T06:00:36.879Z,7.80
2022-10-18T06:04:18.942Z,7.90
2022-10-18T06:08:01.000Z,7.80
2022-10-18T06:11:43.062Z,7.80
2022-10-18T06:15:27.876Z,7.80
2022-10-18T06:19:10.205Z,7.70
2022-10-18T06:22:55.394Z,7.70
2022-10-18T06:26:37.497Z,7.80
2022-10-18T06:30:19.776Z,7.80
2022-10-18T06:34:02.664Z,7.80
2022-10-18T06:37:44.741Z,7.80
2022-10-18T06:41:26.830Z,7.80
2022-10-18T06:45:09.471Z,7.80
2022-10-18T06:48:52.947Z,7.80
2022-10-18T06:52:35.070Z,7.80
2022-10-18T06:56:17.498Z,7.80
2022-10-18T06:59:59.591Z,7.80
2022-10-18T07:03:42.023Z,7.80
2022-10-18T07:07:24.068Z,7.80
2022-10-18T07:11:07.680Z,7.80
2022-10-18T07:14:49.936Z,7.80
2022-10-18T07:18:34.710Z,7.80
2022-10-18T07:22:16.728Z,7.80
2022-10-18T07:25:58.891Z,7.80
2022-10-18T07:29:41.377Z,7.80
2022-10-18T07:33:24.895Z,7.90
2022-10-18T07:37:07.261Z,7.90
2022-10-18T07:40:49.364Z,8.00
2022-10-18T07:44:31.482Z,8.20
2022-10-18T07:48:13.525Z,8.20
2022-10-18T07:51:57.378Z,8.30
2022-10-18T07:55:39.653Z,8.50
2022-10-18T07:59:21.778Z,8.70
2022-10-18T08:03:04.529Z,8.80
2022-10-18T08:06:49.314Z,9.00
2022-10-18T08:10:31.422Z,9.20
2022-10-18T08:14:13.724Z,9.20
2022-10-18T08:17:56.154Z,9.30
2022-10-18T08:21:38.608Z,9.40
2022-10-18T08:25:20.674Z,9.70
2022-10-18T08:29:17.913Z,9.90
2022-10-18T08:33:03.850Z,10.10
2022-10-18T08:36:46.180Z,10.30
2022-10-18T08:40:29.028Z,10.50
2022-10-18T08:44:24.506Z,10.70
2022-10-18T08:48:10.531Z,10.90
2022-10-18T08:51:53.079Z,11.30
2022-10-18T08:56:05.314Z,11.60
2022-10-18T08:59:47.827Z,11.70
2022-10-18T09:03:51.800Z,11.80
2022-10-18T09:08:01.973Z,12.00
2022-10-18T09:12:14.994Z,12.20
2022-10-18T09:16:05.078Z,12.40
2022-10-18T09:23:48.651Z,12.80
2022-10-18T09:27:45.308Z,13.20
2022-10-18T09:31:30.317Z,13.60
2022-10-18T09:35:32.063Z,14.00
2022-10-18T09:39:19.306Z,14.40
2022-10-18T09:43:13.631Z,14.90
2022-10-18T09:47:03.244Z,15.50
2022-10-18T09:51:25.630Z,16.00
2022-10-18T09:55:18.738Z,16.80
2022-10-18T09:59:01.482Z,17.20
2022-10-18T10:07:16.631Z,17.00
2022-10-18T10:10:58.723Z,17.20
2022-10-18T10:14:45.346Z,17.30
2022-10-18T10:18:33.695Z,18.00
2022-10-18T10:22:16.069Z,19.20
2022-10-18T10:26:05.068Z,20.20
2022-10-18T10:29:47.354Z,20.70
2022-10-18T10:33:38.607Z,21.20
2022-10-18T10:37:32.937Z,22.20
2022-10-18T10:41:25.011Z,23.30
2022-10-18T10:45:13.801Z,23.60
2022-10-18T10:49:21.030Z,24.00
2022-10-18T10:53:01.542Z,25.20
2022-10-18T10:57:11.377Z,26.50
2022-10-18T11:00:54.205Z,27.70
2022-10-18T11:04:38.611Z,28.60
2022-10-18T11:08:24.807Z,29.20
2022-10-18T11:12:21.816Z,29.60
2022-10-18T11:16:21.998Z,29.70
2022-10-18T11:20:19.167Z,30.00
2022-10-18T11:24:03.224Z,30.00
2022-10-18T11:28:19.008Z,30.20
2022-10-18T11:32:01.290Z,30.20
2022-10-18T11:36:04.834Z,30.50
2022-10-18T11:40:23.897Z,30.60
2022-10-18T11:44:32.128Z,30.70
2022-10-18T11:48:56.967Z,30.60
2022-10-18T11:52:48.295Z,30.80
2022-10-18T11:56:47.715Z,31.20
2022-10-18T12:00:41.842Z,31.20
2022-10-18T12:04:34.956Z,31.10
2022-10-18T12:08:33.074Z,30.80
2022-10-18T12:12:33.677Z,30.90
2022-10-18T12:16:17.579Z,30.70
2022-10-18T12:20:08.351Z,31.00
2022-10-18T12:24:07.431Z,31.10
2022-10-18T12:31:47.825Z,31.10
2022-10-18T12:35:36.536Z,31.00
2022-10-18T12:39:38.962Z,30.50
2022-10-18T12:43:37.005Z,29.60
2022-10-18T12:47:24.594Z,28.80
2022-10-18T12:51:09.587Z,28.50
2022-10-18T12:55:21.370Z,28.50
2022-10-18T12:59:15.933Z,27.80
2022-10-18T13:03:12.952Z,27.20
2022-10-18T13:06:58.428Z,25.70
2022-10-18T13:10:41.711Z,23.90
2022-10-18T13:15:00.553Z,22.50
2022-10-18T13:18:50.881Z,21.50
2022-10-18T13:22:35.885Z,20.80
2022-10-18T13:26:42.802Z,20.20
2022-10-18T13:30:45.733Z,20.00
2022-10-18T13:34:34.851Z,19.80
2022-10-18T13:38:48.687Z,19.70
2022-10-18T13:42:33.521Z,19.60
2022-10-18T13:46:15.965Z,19.50
2022-10-18T13:50:06.808Z,19.50
2022-10-18T13:54:02.238Z,19.50
2022-10-18T13:58:08.564Z,19.50
2022-10-18T14:02:49.448Z,19.40
2022-10-18T14:06:23.850Z,19.40
2022-10-18T14:10:19.844Z,19.40
2022-10-18T14:14:09.586Z,19.50
2022-10-18T14:17:58.180Z,19.50
2022-10-18T14:21:48.049Z,19.50
2022-10-18T14:25:31.491Z,19.30
2022-10-18T14:29:19.832Z,19.10
2022-10-18T14:33:02.557Z,19.00
2022-10-18T14:36:47.939Z,18.90
2022-10-18T14:40:41.211Z,18.80
2022-10-18T14:44:27.706Z,18.70
2022-10-18T14:48:23.962Z,18.70
2022-10-18T14:52:08.572Z,18.70
2022-10-18T14:55:58.531Z,18.70
2022-10-18T14:59:51.919Z,18.70
2022-10-18T15:03:36.306Z,18.70
2022-10-18T15:07:18.946Z,18.70
2022-10-18T15:11:01.757Z,18.60
2022-10-18T15:14:44.716Z,18.50
2022-10-18T15:18:28.660Z,18.50
2022-10-18T15:22:30.754Z,18.40
2022-10-18T15:26:20.540Z,18.30
2022-10-18T15:30:18.170Z,18.30
2022-10-18T15:34:15.591Z,18.30
2022-10-18T15:38:22.579Z,18.30
2022-10-18T15:42:04.873Z,18.20
2022-10-18T15:49:45.470Z,18.10
2022-10-18T15:53:42.714Z,18.10
2022-10-18T15:57:27.855Z,18.00
2022-10-18T16:01:24.556Z,17.90
2022-10-18T16:05:07.082Z,17.90
2022-10-18T16:08:51.318Z,17.80
2022-10-18T16:12:33.581Z,17.70
2022-10-18T16:16:26.959Z,17.70
2022-10-18T16:20:24.669Z,17.60
2022-10-18T16:24:07.064Z,17.50
2022-10-18T16:27:49.255Z,17.50
2022-10-18T16:31:34.068Z,17.30
2022-10-18T16:35:19.013Z,17.20
2022-10-18T16:39:04.848Z,17.20
2022-10-18T16:42:47.136Z,17.00
2022-10-18T16:46:31.108Z,16.90
2022-10-18T16:50:18.755Z,16.80
2022-10-18T16:54:00.915Z,16.80
2022-10-18T16:57:43.928Z,16.70
2022-10-18T17:01:27.062Z,16.70
2022-10-18T17:05:09.676Z,16.60
2022-10-18T17:08:53.575Z,16.60
2022-10-18T17:12:36.350Z,16.50
2022-10-18T17:16:31.934Z,16.50
2022-10-18T17:20:22.149Z,16.30
2022-10-18T17:24:06.298Z,16.20
2022-10-18T17:27:48.799Z,16.20
2022-10-18T17:31:32.161Z,16.10
2022-10-18T17:35:14.408Z,15.90
2022-10-18T17:38:56.576Z,15.90
2022-10-18T17:42:38.645Z,15.80
2022-10-18T17:46:20.999Z,15.80
2022-10-18T17:50:03.108Z,15.70
2022-10-18T17:53:45.295Z,15.70
2022-10-18T17:57:27.454Z,15.70
2022-10-18T18:01:14.993Z,15.70
2022-10-18T18:04:57.686Z,15.70
2022-10-18T18:08:39.665Z,15.60
2022-10-18T18:12:21.787Z,15.60
2022-10-18T18:16:33.527Z,15.60
2022-10-18T18:20:15.636Z,15.60
2022-10-18T18:23:57.805Z,15.70
2022-10-18T18:27:40.022Z,15.70
2022-10-18T18:31:24.239Z,15.70
2022-10-18T18:35:07.012Z,15.60
2022-10-18T18:38:53.026Z,15.60
2022-10-18T18:42:37.676Z,15.60
2022-10-18T18:46:20.325Z,15.50
2022-10-18T18:50:04.816Z,15.40
2022-10-18T18:53:48.526Z,15.40
2022-10-18T18:57:31.225Z,15.30
2022-10-18T19:01:22.336Z,15.20
2022-10-18T19:05:05.056Z,15.20
2022-10-18T19:08:48.264Z,15.20
2022-10-18T19:12:30.480Z,15.20
2022-10-18T19:16:22.053Z,15.30
2022-10-18T19:20:06.341Z,15.30
2022-10-18T19:23:48.571Z,15.30
2022-10-18T19:27:31.041Z,15.20
2022-10-18T19:31:13.354Z,15.30
2022-10-18T19:34:55.762Z,15.20
2022-10-18T19:38:38.045Z,15.20
2022-10-18T19:42:24.189Z,15.20
2022-10-18T19:46:08.267Z,15.20
2022-10-18T19:49:50.591Z,15.10
2022-10-18T19:53:33.767Z,15.10
2022-10-18T19:57:15.866Z,15.10
2022-10-18T20:01:00.411Z,15.00
2022-10-18T20:04:42.540Z,15.00
2022-10-18T20:08:25.053Z,14.90
2022-10-18T20:12:07.221Z,14.90
2022-10-18T20:15:51.317Z,14.90
2022-10-18T20:19:33.648Z,14.90
2022-10-18T20:23:17.574Z,14.90
2022-10-18T20:26:59.916Z,14.90
2022-10-18T20:30:42.023Z,14.90
2022-10-18T20:34:26.293Z,14.90
2022-10-18T20:38:18.215Z,14.90
2022-10-18T20:42:00.313Z,15.00
2022-10-18T20:45:42.558Z,15.00
2022-10-18T20:49:25.258Z,15.00
2022-10-18T20:53:08.453Z,15.00
2022-10-18T20:56:50.695Z,15.00
2022-10-18T21:00:34.437Z,15.00
2022-10-18T21:04:16.674Z,15.00
2022-10-18T21:07:59.460Z,15.00
2022-10-18T21:11:44.906Z,15.00
2022-10-18T21:15:27.198Z,15.00
2022-10-18T21:19:17.624Z,15.00
2022-10-18T21:22:59.590Z,15.00
2022-10-18T21:26:41.649Z,15.00
2022-10-18T21:30:23.728Z,15.00
2022-10-18T21:34:13.138Z,15.00
2022-10-18T21:37:55.285Z,15.00
2022-10-18T21:41:38.023Z,15.00
2022-10-18T21:45:20.081Z,14.90
2022-10-18T21:49:02.218Z,15.00
2022-10-18T21:52:44.241Z,15.00
2022-10-18T21:56:31.518Z,15.10
2022-10-18T22:00:15.608Z,15.00
2022-10-18T22:03:58.501Z,15.00
2022-10-18T22:07:40.612Z,15.00
2022-10-18T22:11:25.884Z,15.00
2022-10-18T22:15:09.179Z,15.00
2022-10-18T22:18:52.849Z,15.00
2022-10-18T22:22:34.903Z,14.90
2022-10-18T22:26:19.262Z,15.00
2022-10-18T22:30:01.330Z,14.90
2022-10-18T22:33:43.495Z,14.90
2022-10-18T22:37:25.541Z,14.80
2022-10-18T22:41:10.006Z,14.80
2022-10-18T22:44:52.292Z,14.80
2022-10-18T22:48:35.049Z,14.70
2022-10-18T22:52:17.079Z,14.70
2022-10-18T22:55:59.254Z,14.70
2022-10-18T22:59:41.340Z,14.70
2022-10-18T23:03:23.594Z,14.70
2022-10-18T23:07:05.729Z,14.70
2022-10-18T23:10:48.027Z,14.70
2022-10-18T23:14:30.222Z,14.70
2022-10-18T23:18:12.346Z,14.60
2022-10-18T23:21:54.516Z,14.60
2022-10-18T23:25:37.257Z,14.60
2022-10-18T23:29:19.467Z,14.60
2022-10-18T23:33:01.802Z,14.60
2022-10-18T23:40:31.166Z,14.50
2022-10-18T23:44:13.320Z,14.50
2022-10-18T23:47:55.585Z,14.50
2022-10-18T23:51:37.707Z,14.40
2022-10-18T23:55:19.998Z,14.40
2022-10-18T23:59:02.167Z,14.40
